createdAt,value
2023-01-21T00:00:12.269Z,11.80
2023-01-21T00:03:02.222Z,12.00
2023-01-21T00:05:32.714Z,11.60
2023-01-21T00:08:03.256Z,10.30
2023-01-21T00:10:34.197Z,9.20
2023-01-21T00:13:04.030Z,9.70
2023-01-21T00:15:34.405Z,10.90
2023-01-21T00:18:06.325Z,12.00
2023-01-21T00:20:37.216Z,14.20
2023-01-21T00:23:07.796Z,8.60
2023-01-21T00:25:38.180Z,11.10
2023-01-21T00:28:07.693Z,12.70
2023-01-21T00:30:37.287Z,10.80
2023-01-21T00:33:07.396Z,8.70
2023-01-21T00:35:40.077Z,11.00
2023-01-21T00:38:09.946Z,12.00
2023-01-21T00:40:40.297Z,10.00
2023-01-21T00:43:09.924Z,9.10
2023-01-21T00:45:39.621Z,12.70
2023-01-21T00:48:09.092Z,12.00
2023-01-21T00:50:38.023Z,11.60
2023-01-21T00:53:08.103Z,9.70
2023-01-21T00:55:37.757Z,10.60
2023-01-21T00:58:07.874Z,12.40
2023-01-21T01:00:38.199Z,10.70
2023-01-21T01:03:08.597Z,9.50
2023-01-21T01:05:40.898Z,7.40
2023-01-21T01:08:12.680Z,9.30
2023-01-21T01:10:43.188Z,8.80
2023-01-21T01:13:12.493Z,10.20
2023-01-21T01:15:42.681Z,8.00
2023-01-21T01:18:13.849Z,7.70
2023-01-21T01:20:44.678Z,8.10
2023-01-21T01:23:14.351Z,8.00
2023-01-21T01:25:43.928Z,9.40
2023-01-21T01:28:12.484Z,6.90
2023-01-21T01:30:41.405Z,10.40
2023-01-21T01:33:10.389Z,11.70
2023-01-21T01:35:39.046Z,8.20
2023-01-21T01:38:10.185Z,8.90
2023-01-21T01:40:41.265Z,7.40
2023-01-21T01:43:26.120Z,7.40
2023-01-21T01:45:57.652Z,8.80
2023-01-21T01:48:30.443Z,10.10
2023-01-21T01:51:04.488Z,8.90
2023-01-21T01:53:35.313Z,9.70
2023-01-21T01:56:04.919Z,8.50
2023-01-21T01:58:34.090Z,10.20
2023-01-21T02:01:05.339Z,7.40
2023-01-21T02:03:45.417Z,7.80
2023-01-21T02:06:16.613Z,8.40
2023-01-21T02:08:49.108Z,8.00
2023-01-21T02:11:20.794Z,7.90
2023-01-21T02:13:57.436Z,6.10
2023-01-21T02:16:41.833Z,9.60
2023-01-21T02:19:10.707Z,6.40
2023-01-21T02:21:40.191Z,6.90
2023-01-21T02:24:34.166Z,6.00
2023-01-21T02:27:31.391Z,6.90
2023-01-21T02:30:08.924Z,6.60
2023-01-21T02:33:04.232Z,7.00
2023-01-21T02:35:44.084Z,8.60
2023-01-21T02:38:23.121Z,7.00
2023-01-21T02:41:26.719Z,8.30
2023-01-21T02:44:11.271Z,7.70
2023-01-21T02:46:50.551Z,7.10
2023-01-21T02:49:33.079Z,8.00
2023-01-21T02:52:02.667Z,7.70
2023-01-21T02:54:41.267Z,7.00
2023-01-21T02:57:18.647Z,7.70
2023-01-21T02:59:52.344Z,7.70
2023-01-21T03:02:26.970Z,7.20
2023-01-21T03:05:12.546Z,10.00
2023-01-21T03:08:23.753Z,7.40
2023-01-21T03:11:00.837Z,9.70
2023-01-21T03:14:13.007Z,6.90
2023-01-21T03:16:57.728Z,8.50
2023-01-21T03:19:37.631Z,8.50
2023-01-21T03:22:11.652Z,8.10
2023-01-21T03:24:44.861Z,7.30
2023-01-21T03:27:27.225Z,7.90
2023-01-21T03:30:04.158Z,7.00
2023-01-21T03:32:36.706Z,7.20
2023-01-21T03:35:13.257Z,8.80
2023-01-21T03:37:55.356Z,7.60
2023-01-21T03:40:31.218Z,7.60
2023-01-21T03:43:00.112Z,7.70
2023-01-21T03:45:45.617Z,8.00
2023-01-21T03:48:44.042Z,6.70
2023-01-21T03:51:19.359Z,8.50
2023-01-21T03:53:56.223Z,8.50
2023-01-21T03:56:27.038Z,7.40
2023-01-21T03:58:56.681Z,6.90
2023-01-21T04:01:27.241Z,7.60
2023-01-21T04:03:57.217Z,7.80
2023-01-21T04:06:26.354Z,7.80
2023-01-21T04:08:56.853Z,9.00
2023-01-21T04:11:27.591Z,8.60
2023-01-21T04:13:57.288Z,6.80
2023-01-21T04:16:26.124Z,5.70
2023-01-21T04:18:54.553Z,6.90
2023-01-21T04:21:23.237Z,7.70
2023-01-21T04:23:51.341Z,7.40
2023-01-21T04:26:19.478Z,6.60
2023-01-21T04:28:47.760Z,6.50
2023-01-21T04:31:16.138Z,6.90
2023-01-21T04:33:44.721Z,7.60
2023-01-21T04:36:13.812Z,7.60
2023-01-21T04:38:42.597Z,6.50
2023-01-21T04:41:10.890Z,6.50
2023-01-21T04:43:39.276Z,6.60
2023-01-21T04:46:10.160Z,6.10
2023-01-21T04:48:38.576Z,5.70
2023-01-21T04:51:06.987Z,6.30
2023-01-21T04:53:35.962Z,5.80
2023-01-21T04:56:04.416Z,7.30
2023-01-21T04:58:32.801Z,6.90
2023-01-21T05:01:00.929Z,7.00
2023-01-21T05:03:29.094Z,6.20
2023-01-21T05:05:57.425Z,5.90
2023-01-21T05:08:25.708Z,7.20
2023-01-21T05:10:53.917Z,8.10
2023-01-21T05:13:22.149Z,6.40
2023-01-21T05:15:50.238Z,4.90
2023-01-21T05:18:18.578Z,4.50
2023-01-21T05:20:46.686Z,6.10
2023-01-21T05:23:14.854Z,8.60
2023-01-21T05:25:43.035Z,5.60
2023-01-21T05:28:11.812Z,7.40
2023-01-21T05:30:41.777Z,6.00
2023-01-21T05:33:10.928Z,5.80
2023-01-21T05:35:39.314Z,6.40
2023-01-21T05:38:07.588Z,6.30
2023-01-21T05:40:35.709Z,5.90
2023-01-21T05:43:04.398Z,7.10
2023-01-21T05:45:32.577Z,5.90
2023-01-21T05:48:00.749Z,5.80
2023-01-21T05:50:28.932Z,5.50
2023-01-21T05:52:57.204Z,5.80
2023-01-21T05:55:25.686Z,6.50
2023-01-21T05:57:53.970Z,6.50
2023-01-21T06:00:23.762Z,6.80
2023-01-21T06:02:51.919Z,6.40
2023-01-21T06:05:20.642Z,6.50
2023-01-21T06:07:50.556Z,6.00
2023-01-21T06:10:19.642Z,6.50
2023-01-21T06:12:51.495Z,5.90
2023-01-21T06:15:20.298Z,6.50
2023-01-21T06:17:48.570Z,5.40
2023-01-21T06:20:17.126Z,6.10
2023-01-21T06:22:45.388Z,6.60
2023-01-21T06:25:14.628Z,4.70
2023-01-21T06:27:42.797Z,6.60
2023-01-21T06:30:11.718Z,6.80
2023-01-21T06:32:39.973Z,6.00
2023-01-21T06:35:09.472Z,4.90
2023-01-21T06:37:38.264Z,5.50
2023-01-21T06:40:11.086Z,5.80
2023-01-21T06:42:40.028Z,5.40
2023-01-21T06:45:09.353Z,5.00
2023-01-21T06:47:41.529Z,4.90
2023-01-21T06:50:16.167Z,5.50
2023-01-21T06:52:46.934Z,5.60
2023-01-21T06:55:16.178Z,5.70
2023-01-21T06:57:45.179Z,5.80
2023-01-21T07:00:14.621Z,5.60
2023-01-21T07:02:43.299Z,4.90
2023-01-21T07:05:11.962Z,5.80
2023-01-21T07:07:40.827Z,5.70
2023-01-21T07:10:10.173Z,4.20
2023-01-21T07:12:38.623Z,5.10
2023-01-21T07:15:08.035Z,6.30
2023-01-21T07:17:37.004Z,6.20
2023-01-21T07:20:06.615Z,5.70
2023-01-21T07:22:35.375Z,4.90
2023-01-21T07:25:03.808Z,4.90
2023-01-21T07:27:32.154Z,4.80
2023-01-21T07:30:00.944Z,5.20
2023-01-21T07:32:29.641Z,7.20
2023-01-21T07:34:58.440Z,5.60
2023-01-21T07:37:26.789Z,5.20
2023-01-21T07:39:56.299Z,6.10
2023-01-21T07:42:24.765Z,5.50
2023-01-21T07:44:53.154Z,5.80
2023-01-21T07:47:21.466Z,5.40
2023-01-21T07:49:50.147Z,5.50
2023-01-21T07:52:18.462Z,4.90
2023-01-21T07:54:48.008Z,6.00
2023-01-21T07:57:16.351Z,5.50
2023-01-21T07:59:44.772Z,6.80
2023-01-21T08:02:13.968Z,5.10
2023-01-21T08:04:42.960Z,5.40
2023-01-21T08:07:13.233Z,5.60
2023-01-21T08:09:42.183Z,4.70
2023-01-21T08:12:11.482Z,5.80
2023-01-21T08:14:39.959Z,4.60
2023-01-21T08:17:08.550Z,4.10
2023-01-21T08:19:36.825Z,4.60
2023-01-21T08:22:05.309Z,4.30
2023-01-21T08:24:33.993Z,4.80
2023-01-21T08:27:03.084Z,5.70
2023-01-21T08:29:32.505Z,3.80
2023-01-21T08:32:00.978Z,5.00
2023-01-21T08:34:29.563Z,5.30
2023-01-21T08:36:58.035Z,4.80
2023-01-21T08:39:26.413Z,4.30
2023-01-21T08:41:54.894Z,4.10
2023-01-21T08:44:23.377Z,4.90
2023-01-21T08:46:56.060Z,4.20
2023-01-21T08:49:24.744Z,3.90
2023-01-21T08:51:53.529Z,3.90
2023-01-21T08:54:22.315Z,5.30
2023-01-21T08:56:50.904Z,4.30
2023-01-21T08:59:22.045Z,4.30
2023-01-21T09:01:50.398Z,4.20
2023-01-21T09:04:19.009Z,3.30
2023-01-21T09:06:47.277Z,4.10
2023-01-21T09:09:15.963Z,4.90
2023-01-21T09:11:44.402Z,3.90
2023-01-21T09:14:13.147Z,4.60
2023-01-21T09:16:41.665Z,4.60
2023-01-21T09:19:10.433Z,5.80
2023-01-21T09:21:39.085Z,4.10
2023-01-21T09:24:08.293Z,4.20
2023-01-21T09:26:36.903Z,3.90
2023-01-21T09:29:07.732Z,3.60
2023-01-21T09:31:36.677Z,4.20
2023-01-21T09:34:12.277Z,3.70
2023-01-21T09:36:40.881Z,3.20
2023-01-21T09:39:09.682Z,3.60
2023-01-21T09:41:53.796Z,3.70
2023-01-21T09:44:44.333Z,3.10
2023-01-21T09:47:37.288Z,3.70
2023-01-21T09:50:19.796Z,3.30
2023-01-21T09:52:55.019Z,3.80
2023-01-21T09:55:35.675Z,3.40
2023-01-21T09:58:23.758Z,2.40
2023-01-21T10:00:55.690Z,4.10
2023-01-21T10:03:54.375Z,3.20
2023-01-21T10:06:37.667Z,2.80
2023-01-21T10:09:32.305Z,3.20
2023-01-21T10:12:17.584Z,2.60
2023-01-21T10:15:15.188Z,3.60
2023-01-21T10:18:24.249Z,2.70
2023-01-21T10:21:08.161Z,3.20
2023-01-21T10:23:55.965Z,3.30
2023-01-21T10:26:30.292Z,3.90
2023-01-21T10:29:08.441Z,4.20
2023-01-21T10:31:43.039Z,3.40
2023-01-21T10:34:17.406Z,2.60
2023-01-21T10:36:55.069Z,2.80
2023-01-21T10:39:36.053Z,3.10
2023-01-21T10:42:39.998Z,3.40
2023-01-21T10:45:37.415Z,3.00
2023-01-21T10:48:18.600Z,3.30
2023-01-21T10:51:06.082Z,3.30
2023-01-21T10:54:22.563Z,2.60
2023-01-21T10:57:15.508Z,3.10
2023-01-21T10:59:46.684Z,3.20
2023-01-21T11:02:29.524Z,3.40
2023-01-21T11:05:02.360Z,2.60
2023-01-21T11:07:42.836Z,3.00
2023-01-21T11:10:23.229Z,2.50
2023-01-21T11:12:56.820Z,3.50
2023-01-21T11:15:31.074Z,3.10
2023-01-21T11:18:00.198Z,2.70
2023-01-21T11:20:55.800Z,3.00
2023-01-21T11:23:39.387Z,3.40
2023-01-21T11:26:20.944Z,3.20
2023-01-21T11:29:06.947Z,2.60
2023-01-21T11:31:38.186Z,2.60
2023-01-21T11:34:13.231Z,2.30
2023-01-21T11:36:56.535Z,2.90
2023-01-21T11:39:51.616Z,3.40
2023-01-21T11:42:20.432Z,3.10
2023-01-21T11:45:06.737Z,2.80
2023-01-21T11:47:48.012Z,2.60
2023-01-21T11:50:18.715Z,3.00
2023-01-21T11:52:47.795Z,3.10
2023-01-21T11:55:23.702Z,3.90
2023-01-21T11:57:56.272Z,2.80
2023-01-21T12:00:29.999Z,2.20
2023-01-21T12:03:02.136Z,2.50
2023-01-21T12:05:41.485Z,4.10
2023-01-21T12:08:26.746Z,2.60
2023-01-21T12:10:58.004Z,3.30
2023-01-21T12:13:46.759Z,4.20
2023-01-21T12:16:32.915Z,2.50
2023-01-21T12:19:22.860Z,2.20
2023-01-21T12:21:58.201Z,2.20
2023-01-21T12:24:42.928Z,3.10
2023-01-21T12:27:52.790Z,3.30
2023-01-21T12:31:05.999Z,2.50
2023-01-21T12:34:03.483Z,2.20
2023-01-21T12:36:56.473Z,2.00
2023-01-21T12:39:38.128Z,3.80
2023-01-21T12:42:21.460Z,3.90
2023-01-21T12:45:18.742Z,2.80
2023-01-21T12:48:06.136Z,3.40
2023-01-21T12:50:40.174Z,2.10
2023-01-21T12:53:30.979Z,3.80
2023-01-21T12:56:18.185Z,3.30
2023-01-21T12:59:21.480Z,3.90
2023-01-21T13:02:11.926Z,3.00
2023-01-21T13:04:45.571Z,3.40
2023-01-21T13:07:29.714Z,3.70
2023-01-21T13:10:32.615Z,1.90
2023-01-21T13:13:32.319Z,3.20
2023-01-21T13:16:07.103Z,3.30
2023-01-21T13:18:39.116Z,3.40
2023-01-21T13:21:22.032Z,3.30
2023-01-21T13:24:28.700Z,3.20
2023-01-21T13:26:57.503Z,3.50
2023-01-21T13:29:32.435Z,3.70
2023-01-21T13:32:25.285Z,3.30
2023-01-21T13:35:37.178Z,2.70
2023-01-21T13:38:26.997Z,2.90
2023-01-21T13:40:55.435Z,2.30
2023-01-21T13:43:27.128Z,3.50
2023-01-21T13:46:07.492Z,3.20
2023-01-21T13:48:54.363Z,3.60
2023-01-21T13:51:26.597Z,2.60
2023-01-21T13:54:11.922Z,3.90
2023-01-21T13:57:17.975Z,4.30
2023-01-21T13:59:53.434Z,2.90
2023-01-21T14:02:30.131Z,3.80
2023-01-21T14:05:32.770Z,2.60
2023-01-21T14:08:08.300Z,4.60
2023-01-21T14:10:58.205Z,3.60
2023-01-21T14:13:41.838Z,4.20
2023-01-21T14:16:33.809Z,3.70
2023-01-21T14:19:40.146Z,3.90
2023-01-21T14:22:17.943Z,2.90
2023-01-21T14:25:17.480Z,5.00
2023-01-21T14:28:21.797Z,3.70
2023-01-21T14:31:07.146Z,4.00
2023-01-21T14:33:45.755Z,4.70
2023-01-21T14:36:15.034Z,4.00
2023-01-21T14:38:59.225Z,4.00
2023-01-21T14:42:09.469Z,3.20
2023-01-21T14:44:49.092Z,3.00
2023-01-21T14:47:19.506Z,3.20
2023-01-21T14:49:50.637Z,3.10
2023-01-21T14:52:22.135Z,3.90
2023-01-21T14:54:50.471Z,3.60
2023-01-21T14:57:35.427Z,3.50
2023-01-21T15:00:21.476Z,3.90
2023-01-21T15:03:06.368Z,3.70
2023-01-21T15:05:37.064Z,2.40
2023-01-21T15:08:24.001Z,3.00
2023-01-21T15:11:08.621Z,2.70
2023-01-21T15:13:40.205Z,4.70
2023-01-21T15:16:32.268Z,3.80
2023-01-21T15:19:09.947Z,4.70
2023-01-21T15:21:43.473Z,5.20
2023-01-21T15:24:38.964Z,4.00
2023-01-21T15:27:35.186Z,4.20
2023-01-21T15:30:07.007Z,4.60
2023-01-21T15:32:51.930Z,5.10
2023-01-21T15:35:24.590Z,5.10
2023-01-21T15:38:02.731Z,5.30
2023-01-21T15:40:44.623Z,5.30
2023-01-21T15:43:35.938Z,4.70
2023-01-21T15:46:26.462Z,5.80
2023-01-21T15:49:01.010Z,4.60
2023-01-21T15:52:12.754Z,5.40
2023-01-21T15:55:20.518Z,4.70
2023-01-21T15:58:24.544Z,5.30
2023-01-21T16:01:20.262Z,4.10
2023-01-21T16:04:20.332Z,4.70
2023-01-21T16:07:14.731Z,2.80
2023-01-21T16:09:46.584Z,5.30
2023-01-21T16:12:24.612Z,5.50
2023-01-21T16:15:01.524Z,5.20
2023-01-21T16:17:59.591Z,4.60
2023-01-21T16:20:29.752Z,4.90
2023-01-21T16:23:08.266Z,5.40
2023-01-21T16:25:47.142Z,3.80
2023-01-21T16:28:16.738Z,4.00
2023-01-21T16:31:01.728Z,5.60
2023-01-21T16:33:30.825Z,6.30
2023-01-21T16:36:06.076Z,6.20
2023-01-21T16:38:37.201Z,4.30
2023-01-21T16:41:09.159Z,7.20
2023-01-21T16:43:49.438Z,7.90
2023-01-21T16:46:23.249Z,3.90
2023-01-21T16:48:57.455Z,7.40
2023-01-21T16:51:32.378Z,5.50
2023-01-21T16:54:19.923Z,7.70
2023-01-21T16:57:17.910Z,8.50
2023-01-21T16:59:50.385Z,5.20
2023-01-21T17:02:25.462Z,7.80
2023-01-21T17:05:00.177Z,7.90
2023-01-21T17:07:38.353Z,8.60
2023-01-21T17:10:24.976Z,7.70
2023-01-21T17:12:59.395Z,6.70
2023-01-21T17:15:36.534Z,7.20
2023-01-21T17:18:17.853Z,6.50
2023-01-21T17:20:51.662Z,7.70
2023-01-21T17:23:27.728Z,8.10
2023-01-21T17:26:03.684Z,6.80
2023-01-21T17:29:03.405Z,8.00
2023-01-21T17:31:43.474Z,7.60
2023-01-21T17:34:16.645Z,6.00
2023-01-21T17:36:48.314Z,7.20
2023-01-21T17:39:49.868Z,5.40
2023-01-21T17:42:24.732Z,7.60
2023-01-21T17:45:01.684Z,8.30
2023-01-21T17:47:42.482Z,7.10
2023-01-21T17:50:33.159Z,8.80
2023-01-21T17:53:07.493Z,8.30
2023-01-21T17:55:41.185Z,8.60
2023-01-21T17:58:43.973Z,9.40
2023-01-21T18:01:14.274Z,8.90
2023-01-21T18:03:43.712Z,9.20
2023-01-21T18:06:22.634Z,8.00
2023-01-21T18:08:53.117Z,7.70
2023-01-21T18:11:22.673Z,7.90
2023-01-21T18:13:52.832Z,9.60
2023-01-21T18:16:21.558Z,8.60
2023-01-21T18:18:51.017Z,7.70
2023-01-21T18:21:21.551Z,9.10
2023-01-21T18:23:51.289Z,6.50
2023-01-21T18:26:30.818Z,8.80
2023-01-21T18:29:00.722Z,9.30
2023-01-21T18:31:29.833Z,9.40
2023-01-21T18:33:59.442Z,8.50
2023-01-21T18:36:28.414Z,8.50
2023-01-21T18:38:57.399Z,9.00
2023-01-21T18:41:26.615Z,7.30
2023-01-21T18:43:57.333Z,8.10
2023-01-21T18:46:27.089Z,7.80
2023-01-21T18:48:56.467Z,8.10
2023-01-21T18:51:26.919Z,9.40
2023-01-21T18:53:56.822Z,9.50
2023-01-21T18:56:25.417Z,8.50
2023-01-21T18:58:54.085Z,7.20
2023-01-21T19:01:24.099Z,8.50
2023-01-21T19:03:54.434Z,6.60
2023-01-21T19:06:24.150Z,8.20
2023-01-21T19:08:55.373Z,7.60
2023-01-21T19:11:25.511Z,7.60
2023-01-21T19:13:54.959Z,8.10
2023-01-21T19:16:24.624Z,7.60
2023-01-21T19:18:53.310Z,7.20
2023-01-21T19:21:24.676Z,7.90
2023-01-21T19:23:54.691Z,8.20
2023-01-21T19:26:23.487Z,8.20
2023-01-21T19:28:54.835Z,7.80
2023-01-21T19:31:24.339Z,6.20
2023-01-21T19:33:54.329Z,8.40
2023-01-21T19:36:25.203Z,8.90
2023-01-21T19:38:57.286Z,7.50
2023-01-21T19:41:26.286Z,8.30
2023-01-21T19:43:54.961Z,7.90
2023-01-21T19:46:24.145Z,7.70
2023-01-21T19:48:53.969Z,7.60
2023-01-21T19:51:23.563Z,8.40
2023-01-21T19:53:52.306Z,8.00
2023-01-21T19:56:24.448Z,8.20
2023-01-21T19:58:53.763Z,7.60
2023-01-21T20:01:22.276Z,8.20
2023-01-21T20:03:59.628Z,7.10
2023-01-21T20:06:38.577Z,8.00
2023-01-21T20:09:07.794Z,8.60
2023-01-21T20:11:36.624Z,8.00
2023-01-21T20:14:06.329Z,6.90
2023-01-21T20:16:51.815Z,8.30
2023-01-21T20:19:22.956Z,8.50
2023-01-21T20:22:01.354Z,9.80
2023-01-21T20:24:34.148Z,8.00
2023-01-21T20:27:06.665Z,10.30
2023-01-21T20:29:44.419Z,8.90
2023-01-21T20:32:14.348Z,10.30
2023-01-21T20:34:42.928Z,10.10
2023-01-21T20:37:15.930Z,8.50
2023-01-21T20:39:45.108Z,8.60
2023-01-21T20:42:14.704Z,8.50
2023-01-21T20:44:44.636Z,10.70
2023-01-21T20:47:14.609Z,10.30
2023-01-21T20:49:48.581Z,10.70
2023-01-21T20:52:19.194Z,11.00
2023-01-21T20:54:50.472Z,9.90
2023-01-21T20:57:26.500Z,11.00
2023-01-21T20:59:55.498Z,10.80
2023-01-21T21:02:25.037Z,11.10
2023-01-21T21:04:56.232Z,8.20
2023-01-21T21:07:28.244Z,10.80
2023-01-21T21:10:00.371Z,10.10
2023-01-21T21:12:29.184Z,9.50
2023-01-21T21:14:58.053Z,7.20
2023-01-21T21:17:27.385Z,7.50
2023-01-21T21:19:56.144Z,10.80
2023-01-21T21:22:25.238Z,10.50
2023-01-21T21:24:54.958Z,10.80
2023-01-21T21:27:23.675Z,10.30
2023-01-21T21:29:56.321Z,9.20
2023-01-21T21:32:24.748Z,10.50
2023-01-21T21:34:55.462Z,10.40
2023-01-21T21:37:24.817Z,10.70
2023-01-21T21:39:54.120Z,8.00
2023-01-21T21:42:42.272Z,10.70
2023-01-21T21:45:13.303Z,10.00
2023-01-21T21:48:00.958Z,10.70
2023-01-21T21:50:29.927Z,10.80
2023-01-21T21:52:58.871Z,11.40
2023-01-21T21:55:27.919Z,9.40
2023-01-21T21:57:57.213Z,8.90
2023-01-21T22:00:25.981Z,9.90
2023-01-21T22:03:00.398Z,10.10
2023-01-21T22:05:31.145Z,9.70
2023-01-21T22:08:04.135Z,10.30
2023-01-21T22:10:32.846Z,10.60
2023-01-21T22:13:04.526Z,10.60
2023-01-21T22:15:33.375Z,11.00
2023-01-21T22:18:05.041Z,11.90
2023-01-21T22:20:33.800Z,11.40
2023-01-21T22:23:03.727Z,11.20
2023-01-21T22:25:36.286Z,11.60
2023-01-21T22:28:05.008Z,12.10
2023-01-21T22:30:34.041Z,11.40
2023-01-21T22:33:03.339Z,11.40
2023-01-21T22:35:34.751Z,10.90
2023-01-21T22:38:07.216Z,10.30
2023-01-21T22:40:40.317Z,10.40
2023-01-21T22:43:10.637Z,11.50
2023-01-21T22:45:40.720Z,10.90
2023-01-21T22:48:09.742Z,10.00
2023-01-21T22:50:44.691Z,11.00
2023-01-21T22:53:14.604Z,8.90
2023-01-21T22:55:43.160Z,11.70
2023-01-21T22:58:11.453Z,11.40
2023-01-21T23:00:41.266Z,10.90
2023-01-21T23:03:11.248Z,11.00
2023-01-21T23:05:39.905Z,10.20
2023-01-21T23:08:09.072Z,10.90
2023-01-21T23:10:38.170Z,9.60
2023-01-21T23:13:06.638Z,11.10
2023-01-21T23:15:35.128Z,10.60
2023-01-21T23:18:03.600Z,7.40
2023-01-21T23:20:31.993Z,9.20
2023-01-21T23:23:00.473Z,8.70
2023-01-21T23:25:29.154Z,9.20
2023-01-21T23:27:57.479Z,10.00
2023-01-21T23:30:25.753Z,8.20
2023-01-21T23:32:54.083Z,9.50
2023-01-21T23:35:22.559Z,8.40
2023-01-21T23:37:51.148Z,9.40
2023-01-21T23:40:20.091Z,8.90
2023-01-21T23:42:49.604Z,9.10
2023-01-21T23:45:18.129Z,9.30
2023-01-21T23:47:47.840Z,9.90
2023-01-21T23:50:16.757Z,8.70
2023-01-21T23:52:45.614Z,9.40
2023-01-21T23:55:15.040Z,8.50
2023-01-21T23:57:43.400Z,8.60
